National Weather Service Raw Text Product

Displaying AFOS PIL: TAFDSM Received: 2018-05-17 17:20 UTC


254 
FTUS43 KDMX 171720
TAFDSM
TAF
KDSM 171720Z 1718/1818 12008KT P6SM SCT250=